sensor_id;sensor_type;location;lat;lon;timestamp;temperature;humidity
1301;DHT22;59099;48.806;9.160;2022-09-09T00:09:47;15.40;99.90
1301;DHT22;59099;48.806;9.160;2022-09-09T00:12:24;15.40;99.90
1301;DHT22;59099;48.806;9.160;2022-09-09T00:14:59;15.60;99.90
1301;DHT22;59099;48.806;9.160;2022-09-09T00:17:52;15.70;99.90
1301;DHT22;59099;48.806;9.160;2022-09-09T00:20:24;15.60;99.90
1301;DHT22;59099;48.806;9.160;2022-09-09T00:25:42;15.80;99.90
1301;DHT22;59099;48.806;9.160;2022-09-09T00:28:29;15.80;99.90
1301;DHT22;59099;48.806;9.160;2022-09-09T00:31:11;15.90;99.90
1301;DHT22;59099;48.806;9.160;2022-09-09T00:33:38;15.90;99.90
1301;DHT22;59099;48.806;9.160;2022-09-09T00:36:12;16.00;99.90
1301;DHT22;59099;48.806;9.160;2022-09-09T00:38:48;16.00;99.90
1301;DHT22;59099;48.806;9.160;2022-09-09T00:44:27;16.20;99.90
1301;DHT22;59099;48.806;9.160;2022-09-09T00:55:20;16.40;99.90
1301;DHT22;59099;48.806;9.160;2022-09-09T00:57:38;16.40;99.90
1301;DHT22;59099;48.806;9.160;2022-09-09T01:08:01;16.70;99.90
1301;DHT22;59099;48.806;9.160;2022-09-09T01:10:50;16.60;99.90
1301;DHT22;59099;48.806;9.160;2022-09-09T01:13:27;16.60;99.90
1301;DHT22;59099;48.806;9.160;2022-09-09T01:16:01;16.60;99.90
1301;DHT22;59099;48.806;9.160;2022-09-09T01:18:49;16.70;99.90
1301;DHT22;59099;48.806;9.160;2022-09-09T01:21:53;16.70;99.90
1301;DHT22;59099;48.806;9.160;2022-09-09T01:24:35;16.70;99.90
1301;DHT22;59099;48.806;9.160;2022-09-09T01:27:25;16.70;99.90
1301;DHT22;59099;48.806;9.160;2022-09-09T01:29:51;16.70;99.90
1301;DHT22;59099;48.806;9.160;2022-09-09T01:32:38;16.70;99.90
1301;DHT22;59099;48.806;9.160;2022-09-09T01:35:10;16.70;99.90
1301;DHT22;59099;48.806;9.160;2022-09-09T01:37:38;16.70;99.90
1301;DHT22;59099;48.806;9.160;2022-09-09T01:40:04;16.70;99.90
1301;DHT22;59099;48.806;9.160;2022-09-09T01:42:32;16.70;99.90
1301;DHT22;59099;48.806;9.160;2022-09-09T01:44:59;16.60;99.90
1301;DHT22;59099;48.806;9.160;2022-09-09T01:47:24;16.60;99.90
1301;DHT22;59099;48.806;9.160;2022-09-09T01:50:01;16.60;99.90
1301;DHT22;59099;48.806;9.160;2022-09-09T01:52:30;16.70;99.90
1301;DHT22;59099;48.806;9.160;2022-09-09T01:54:56;16.60;99.90
1301;DHT22;59099;48.806;9.160;2022-09-09T01:57:33;16.60;99.90
1301;DHT22;59099;48.806;9.160;2022-09-09T02:00:09;16.50;99.90
1301;DHT22;59099;48.806;9.160;2022-09-09T02:03:00;16.50;99.90
1301;DHT22;59099;48.806;9.160;2022-09-09T02:05:40;16.50;99.90
1301;DHT22;59099;48.806;9.160;2022-09-09T02:08:19;16.40;99.90
1301;DHT22;59099;48.806;9.160;2022-09-09T02:11:01;16.30;99.90
1301;DHT22;59099;48.806;9.160;2022-09-09T02:13:37;16.30;99.90
1301;DHT22;59099;48.806;9.160;2022-09-09T02:19:52;16.20;99.90
1301;DHT22;59099;48.806;9.160;2022-09-09T02:22:41;16.10;99.90
1301;DHT22;59099;48.806;9.160;2022-09-09T02:25:12;16.10;99.90
1301;DHT22;59099;48.806;9.160;2022-09-09T02:27:45;15.90;99.90
1301;DHT22;59099;48.806;9.160;2022-09-09T02:30:13;16.10;99.90
1301;DHT22;59099;48.806;9.160;2022-09-09T02:32:51;16.20;99.90
1301;DHT22;59099;48.806;9.160;2022-09-09T02:35:23;16.10;99.90
1301;DHT22;59099;48.806;9.160;2022-09-09T02:37:52;16.00;99.90
1301;DHT22;59099;48.806;9.160;2022-09-09T02:40:19;16.10;99.90
1301;DHT22;59099;48.806;9.160;2022-09-09T02:42:54;16.00;99.90
1301;DHT22;59099;48.806;9.160;2022-09-09T02:45:24;15.90;99.90
1301;DHT22;59099;48.806;9.160;2022-09-09T02:48:03;15.80;99.90
1301;DHT22;59099;48.806;9.160;2022-09-09T02:53:20;15.60;99.90
1301;DHT22;59099;48.806;9.160;2022-09-09T02:55:54;15.60;99.90
1301;DHT22;59099;48.806;9.160;2022-09-09T02:58:23;15.50;99.90
1301;DHT22;59099;48.806;9.160;2022-09-09T03:00:56;15.40;99.90
1301;DHT22;59099;48.806;9.160;2022-09-09T03:03:24;15.30;99.90
1301;DHT22;59099;48.806;9.160;2022-09-09T03:05:51;15.10;99.90
1301;DHT22;59099;48.806;9.160;2022-09-09T03:08:17;15.00;99.90
1301;DHT22;59099;48.806;9.160;2022-09-09T03:10:44;14.90;99.90
1301;DHT22;59099;48.806;9.160;2022-09-09T03:13:13;14.90;99.90
1301;DHT22;59099;48.806;9.160;2022-09-09T03:15:41;14.80;99.90
1301;DHT22;59099;48.806;9.160;2022-09-09T03:18:11;14.80;99.90
1301;DHT22;59099;48.806;9.160;2022-09-09T03:20:37;14.80;99.90
1301;DHT22;59099;48.806;9.160;2022-09-09T03:23:03;14.80;99.90
1301;DHT22;59099;48.806;9.160;2022-09-09T03:25:29;14.80;99.90
1301;DHT22;59099;48.806;9.160;2022-09-09T03:27:56;14.80;99.90
1301;DHT22;59099;48.806;9.160;2022-09-09T03:30:27;14.80;99.90
1301;DHT22;59099;48.806;9.160;2022-09-09T03:32:55;14.90;99.90
1301;DHT22;59099;48.806;9.160;2022-09-09T03:35:24;15.00;99.90
1301;DHT22;59099;48.806;9.160;2022-09-09T03:37:50;15.00;99.90
1301;DHT22;59099;48.806;9.160;2022-09-09T03:40:16;15.00;99.90
1301;DHT22;59099;48.806;9.160;2022-09-09T03:42:45;14.90;99.90
1301;DHT22;59099;48.806;9.160;2022-09-09T03:45:11;14.90;99.90
1301;DHT22;59099;48.806;9.160;2022-09-09T03:47:39;14.90;99.90
1301;DHT22;59099;48.806;9.160;2022-09-09T03:50:07;14.90;99.90
1301;DHT22;59099;48.806;9.160;2022-09-09T03:52:39;14.90;99.90
1301;DHT22;59099;48.806;9.160;2022-09-09T03:55:11;15.10;99.90
1301;DHT22;59099;48.806;9.160;2022-09-09T03:57:37;15.20;99.90
1301;DHT22;59099;48.806;9.160;2022-09-09T04:00:08;15.20;99.90
1301;DHT22;59099;48.806;9.160;2022-09-09T04:02:43;15.30;99.90
1301;DHT22;59099;48.806;9.160;2022-09-09T04:05:12;15.30;99.90
1301;DHT22;59099;48.806;9.160;2022-09-09T04:07:42;15.40;99.90
1301;DHT22;59099;48.806;9.160;2022-09-09T04:10:10;15.40;99.90
1301;DHT22;59099;48.806;9.160;2022-09-09T04:12:38;15.50;99.90
1301;DHT22;59099;48.806;9.160;2022-09-09T04:15:04;15.60;99.90
1301;DHT22;59099;48.806;9.160;2022-09-09T04:17:31;15.60;99.90
1301;DHT22;59099;48.806;9.160;2022-09-09T04:19:57;15.70;99.90
1301;DHT22;59099;48.806;9.160;2022-09-09T04:22:23;15.80;99.90
1301;DHT22;59099;48.806;9.160;2022-09-09T04:24:49;15.80;99.90
1301;DHT22;59099;48.806;9.160;2022-09-09T04:27:17;15.70;99.90
1301;DHT22;59099;48.806;9.160;2022-09-09T04:29:43;15.70;99.90
1301;DHT22;59099;48.806;9.160;2022-09-09T04:32:09;15.70;99.90
1301;DHT22;59099;48.806;9.160;2022-09-09T04:34:35;15.80;99.90
1301;DHT22;59099;48.806;9.160;2022-09-09T04:37:01;15.80;99.90
1301;DHT22;59099;48.806;9.160;2022-09-09T04:39:27;15.80;99.90
1301;DHT22;59099;48.806;9.160;2022-09-09T04:41:53;15.80;99.90
1301;DHT22;59099;48.806;9.160;2022-09-09T04:44:21;15.80;99.90
1301;DHT22;59099;48.806;9.160;2022-09-09T04:46:47;15.90;99.90
1301;DHT22;59099;48.806;9.160;2022-09-09T04:49:13;15.90;99.90
1301;DHT22;59099;48.806;9.160;2022-09-09T04:51:39;15.80;99.90
1301;DHT22;59099;48.806;9.160;2022-09-09T04:54:05;15.80;99.90
1301;DHT22;59099;48.806;9.160;2022-09-09T04:56:32;15.80;99.90
1301;DHT22;59099;48.806;9.160;2022-09-09T04:58:59;15.70;99.90
1301;DHT22;59099;48.806;9.160;2022-09-09T05:01:51;15.70;99.90
1301;DHT22;59099;48.806;9.160;2022-09-09T05:04:16;15.70;99.90
1301;DHT22;59099;48.806;9.160;2022-09-09T05:06:42;15.60;99.90
1301;DHT22;59099;48.806;9.160;2022-09-09T05:09:10;15.70;99.90
1301;DHT22;59099;48.806;9.160;2022-09-09T05:11:36;15.70;99.90
1301;DHT22;59099;48.806;9.160;2022-09-09T05:14:22;15.70;99.90
1301;DHT22;59099;48.806;9.160;2022-09-09T05:16:48;15.60;99.90
1301;DHT22;59099;48.806;9.160;2022-09-09T05:19:15;15.70;99.90
1301;DHT22;59099;48.806;9.160;2022-09-09T05:21:47;15.70;99.90
1301;DHT22;59099;48.806;9.160;2022-09-09T05:24:16;15.70;99.90
1301;DHT22;59099;48.806;9.160;2022-09-09T05:26:43;15.80;99.90
1301;DHT22;59099;48.806;9.160;2022-09-09T05:29:10;15.80;99.90
1301;DHT22;59099;48.806;9.160;2022-09-09T05:31:36;15.90;99.90
1301;DHT22;59099;48.806;9.160;2022-09-09T05:34:08;15.90;99.90
1301;DHT22;59099;48.806;9.160;2022-09-09T05:36:34;16.00;99.90
1301;DHT22;59099;48.806;9.160;2022-09-09T05:39:00;16.10;99.90
1301;DHT22;59099;48.806;9.160;2022-09-09T05:41:29;16.10;99.90
1301;DHT22;59099;48.806;9.160;2022-09-09T05:43:58;16.10;99.90
1301;DHT22;59099;48.806;9.160;2022-09-09T05:46:27;16.20;99.90
1301;DHT22;59099;48.806;9.160;2022-09-09T05:48:55;16.30;99.90
1301;DHT22;59099;48.806;9.160;2022-09-09T05:51:28;16.30;99.90
1301;DHT22;59099;48.806;9.160;2022-09-09T05:54:02;16.30;99.90
1301;DHT22;59099;48.806;9.160;2022-09-09T05:56:31;16.40;99.90
1301;DHT22;59099;48.806;9.160;2022-09-09T05:58:58;16.40;99.90
1301;DHT22;59099;48.806;9.160;2022-09-09T06:01:29;16.40;99.90
1301;DHT22;59099;48.806;9.160;2022-09-09T06:03:56;16.50;99.90
1301;DHT22;59099;48.806;9.160;2022-09-09T06:06:31;16.60;99.90
1301;DHT22;59099;48.806;9.160;2022-09-09T06:08:58;16.70;99.90
1301;DHT22;59099;48.806;9.160;2022-09-09T06:11:29;16.70;99.90
1301;DHT22;59099;48.806;9.160;2022-09-09T06:13:59;16.80;99.90
1301;DHT22;59099;48.806;9.160;2022-09-09T06:16:28;16.80;99.90
1301;DHT22;59099;48.806;9.160;2022-09-09T06:18:56;16.90;99.90
1301;DHT22;59099;48.806;9.160;2022-09-09T06:21:30;17.00;99.90
1301;DHT22;59099;48.806;9.160;2022-09-09T06:23:57;17.10;99.90
1301;DHT22;59099;48.806;9.160;2022-09-09T06:26:23;17.10;99.90
1301;DHT22;59099;48.806;9.160;2022-09-09T06:28:53;17.10;99.90
1301;DHT22;59099;48.806;9.160;2022-09-09T06:31:25;17.00;99.90
1301;DHT22;59099;48.806;9.160;2022-09-09T06:33:53;17.00;99.90
1301;DHT22;59099;48.806;9.160;2022-09-09T06:36:27;17.00;99.90
1301;DHT22;59099;48.806;9.160;2022-09-09T06:38:56;17.00;99.90
1301;DHT22;59099;48.806;9.160;2022-09-09T06:41:27;17.00;99.90
1301;DHT22;59099;48.806;9.160;2022-09-09T06:43:54;17.20;99.90
1301;DHT22;59099;48.806;9.160;2022-09-09T06:46:32;17.30;99.90
1301;DHT22;59099;48.806;9.160;2022-09-09T06:49:00;17.30;99.90
1301;DHT22;59099;48.806;9.160;2022-09-09T06:51:29;17.30;99.90
1301;DHT22;59099;48.806;9.160;2022-09-09T06:53:58;17.30;99.90
1301;DHT22;59099;48.806;9.160;2022-09-09T06:56:30;17.30;99.90
1301;DHT22;59099;48.806;9.160;2022-09-09T06:59:00;17.40;99.90
1301;DHT22;59099;48.806;9.160;2022-09-09T07:01:36;17.50;99.90
1301;DHT22;59099;48.806;9.160;2022-09-09T07:04:06;17.60;99.90
1301;DHT22;59099;48.806;9.160;2022-09-09T07:06:37;17.60;99.90
1301;DHT22;59099;48.806;9.160;2022-09-09T07:09:07;17.70;99.90
1301;DHT22;59099;48.806;9.160;2022-09-09T07:11:38;17.80;99.90
1301;DHT22;59099;48.806;9.160;2022-09-09T07:14:04;17.80;99.90
1301;DHT22;59099;48.806;9.160;2022-09-09T07:16:30;17.80;99.90
1301;DHT22;59099;48.806;9.160;2022-09-09T07:19:04;17.80;99.90
1301;DHT22;59099;48.806;9.160;2022-09-09T07:21:31;17.90;99.90
1301;DHT22;59099;48.806;9.160;2022-09-09T07:23:59;17.90;99.90
1301;DHT22;59099;48.806;9.160;2022-09-09T07:26:27;18.00;99.90
1301;DHT22;59099;48.806;9.160;2022-09-09T07:28:54;18.10;99.90
1301;DHT22;59099;48.806;9.160;2022-09-09T07:31:28;18.10;99.90
1301;DHT22;59099;48.806;9.160;2022-09-09T07:33:58;18.40;99.90
1301;DHT22;59099;48.806;9.160;2022-09-09T07:36:32;18.50;99.90
1301;DHT22;59099;48.806;9.160;2022-09-09T07:39:06;18.70;99.90
1301;DHT22;59099;48.806;9.160;2022-09-09T07:41:36;18.90;99.90
1301;DHT22;59099;48.806;9.160;2022-09-09T07:44:07;19.00;99.90
1301;DHT22;59099;48.806;9.160;2022-09-09T07:46:35;19.10;99.90
1301;DHT22;59099;48.806;9.160;2022-09-09T07:49:02;19.20;99.90
1301;DHT22;59099;48.806;9.160;2022-09-09T07:51:35;19.30;99.90
1301;DHT22;59099;48.806;9.160;2022-09-09T07:54:08;19.30;99.90
1301;DHT22;59099;48.806;9.160;2022-09-09T07:56:42;19.30;99.90
1301;DHT22;59099;48.806;9.160;2022-09-09T07:59:09;19.10;99.90
1301;DHT22;59099;48.806;9.160;2022-09-09T08:01:39;19.30;99.90
1301;DHT22;59099;48.806;9.160;2022-09-09T08:04:09;19.50;99.90
1301;DHT22;59099;48.806;9.160;2022-09-09T08:06:42;19.50;99.90
1301;DHT22;59099;48.806;9.160;2022-09-09T08:09:09;19.60;99.90
1301;DHT22;59099;48.806;9.160;2022-09-09T08:11:38;19.60;99.90
1301;DHT22;59099;48.806;9.160;2022-09-09T08:14:05;19.70;99.90
1301;DHT22;59099;48.806;9.160;2022-09-09T08:16:36;19.70;99.90
1301;DHT22;59099;48.806;9.160;2022-09-09T08:19:03;19.70;99.90
1301;DHT22;59099;48.806;9.160;2022-09-09T08:21:31;19.70;99.90
1301;DHT22;59099;48.806;9.160;2022-09-09T08:23:59;19.70;99.90
1301;DHT22;59099;48.806;9.160;2022-09-09T08:26:34;19.70;99.90
1301;DHT22;59099;48.806;9.160;2022-09-09T08:29:02;19.80;99.90
1301;DHT22;59099;48.806;9.160;2022-09-09T08:31:37;19.90;99.90
1301;DHT22;59099;48.806;9.160;2022-09-09T08:34:05;19.90;99.90
1301;DHT22;59099;48.806;9.160;2022-09-09T08:36:34;20.00;99.90
1301;DHT22;59099;48.806;9.160;2022-09-09T08:39:03;20.30;99.90
1301;DHT22;59099;48.806;9.160;2022-09-09T08:44:42;20.10;99.90
1301;DHT22;59099;48.806;9.160;2022-09-09T08:55:37;20.20;99.90
1301;DHT22;59099;48.806;9.160;2022-09-09T08:58:19;20.40;99.90
1301;DHT22;59099;48.806;9.160;2022-09-09T09:11:57;20.80;99.90
1301;DHT22;59099;48.806;9.160;2022-09-09T09:14:35;20.90;99.90
1301;DHT22;59099;48.806;9.160;2022-09-09T09:17:11;20.90;99.90
1301;DHT22;59099;48.806;9.160;2022-09-09T09:19:42;21.00;99.90
1301;DHT22;59099;48.806;9.160;2022-09-09T09:22:32;20.90;99.90
1301;DHT22;59099;48.806;9.160;2022-09-09T09:25:12;20.70;99.90
1301;DHT22;59099;48.806;9.160;2022-09-09T09:27:44;20.50;99.90
1301;DHT22;59099;48.806;9.160;2022-09-09T09:30:20;20.30;99.90
1301;DHT22;59099;48.806;9.160;2022-09-09T09:33:02;20.10;99.90
1301;DHT22;59099;48.806;9.160;2022-09-09T09:35:32;20.00;99.90
1301;DHT22;59099;48.806;9.160;2022-09-09T09:37:58;19.80;99.90
1301;DHT22;59099;48.806;9.160;2022-09-09T09:40:27;19.60;99.90
1301;DHT22;59099;48.806;9.160;2022-09-09T09:43:00;19.60;99.90
1301;DHT22;59099;48.806;9.160;2022-09-09T09:45:35;19.40;99.90
1301;DHT22;59099;48.806;9.160;2022-09-09T09:48:14;19.40;99.90
1301;DHT22;59099;48.806;9.160;2022-09-09T09:50:53;19.80;99.90
1301;DHT22;59099;48.806;9.160;2022-09-09T09:53:39;20.70;99.90
1301;DHT22;59099;48.806;9.160;2022-09-09T09:56:09;21.70;99.90
1301;DHT22;59099;48.806;9.160;2022-09-09T09:58:55;22.30;99.90
1301;DHT22;59099;48.806;9.160;2022-09-09T10:01:29;23.00;99.90
1301;DHT22;59099;48.806;9.160;2022-09-09T10:04:01;23.50;99.90
1301;DHT22;59099;48.806;9.160;2022-09-09T10:06:34;24.10;99.90
1301;DHT22;59099;48.806;9.160;2022-09-09T10:09:01;24.60;99.90
1301;DHT22;59099;48.806;9.160;2022-09-09T10:11:39;25.30;99.90
1301;DHT22;59099;48.806;9.160;2022-09-09T10:14:22;25.20;98.30
1301;DHT22;59099;48.806;9.160;2022-09-09T10:20:44;24.90;96.30
1301;DHT22;59099;48.806;9.160;2022-09-09T10:26:04;24.70;96.60
1301;DHT22;59099;48.806;9.160;2022-09-09T10:31:21;26.50;93.40
1301;DHT22;59099;48.806;9.160;2022-09-09T10:36:49;26.50;91.10
1301;DHT22;59099;48.806;9.160;2022-09-09T10:42:00;25.00;92.10
1301;DHT22;59099;48.806;9.160;2022-09-09T10:47:39;24.20;92.10
1301;DHT22;59099;48.806;9.160;2022-09-09T10:50:23;23.90;94.00
1301;DHT22;59099;48.806;9.160;2022-09-09T10:55:51;23.70;94.00
1301;DHT22;59099;48.806;9.160;2022-09-09T10:58:25;24.00;94.00
1301;DHT22;59099;48.806;9.160;2022-09-09T11:00:57;24.20;92.90
1301;DHT22;59099;48.806;9.160;2022-09-09T11:03:29;24.50;93.90
1301;DHT22;59099;48.806;9.160;2022-09-09T11:08:30;25.40;92.10
1301;DHT22;59099;48.806;9.160;2022-09-09T11:11:18;25.60;92.50
1301;DHT22;59099;48.806;9.160;2022-09-09T11:14:00;24.50;92.50
1301;DHT22;59099;48.806;9.160;2022-09-09T11:16:36;22.80;94.50
1301;DHT22;59099;48.806;9.160;2022-09-09T11:22:08;21.80;96.90
1301;DHT22;59099;48.806;9.160;2022-09-09T11:30:27;21.20;97.10
1301;DHT22;59099;48.806;9.160;2022-09-09T11:35:45;21.00;96.80
1301;DHT22;59099;48.806;9.160;2022-09-09T11:38:21;20.80;98.00
1301;DHT22;59099;48.806;9.160;2022-09-09T11:40:56;20.60;98.70
1301;DHT22;59099;48.806;9.160;2022-09-09T11:43:31;20.70;99.70
1301;DHT22;59099;48.806;9.160;2022-09-09T11:46:01;20.70;99.00
1301;DHT22;59099;48.806;9.160;2022-09-09T11:48:42;20.50;99.90
1301;DHT22;59099;48.806;9.160;2022-09-09T11:54:02;20.50;99.90
1301;DHT22;59099;48.806;9.160;2022-09-09T11:56:32;20.60;99.90
1301;DHT22;59099;48.806;9.160;2022-09-09T11:59:05;20.70;99.90
1301;DHT22;59099;48.806;9.160;2022-09-09T12:01:37;20.80;99.90
1301;DHT22;59099;48.806;9.160;2022-09-09T12:07:20;20.60;99.90
1301;DHT22;59099;48.806;9.160;2022-09-09T12:12:34;23.20;99.90
1301;DHT22;59099;48.806;9.160;2022-09-09T12:17:44;24.20;93.30
1301;DHT22;59099;48.806;9.160;2022-09-09T12:28:09;25.80;88.20
1301;DHT22;59099;48.806;9.160;2022-09-09T12:30:57;25.80;86.80
1301;DHT22;59099;48.806;9.160;2022-09-09T12:33:24;26.10;85.90
1301;DHT22;59099;48.806;9.160;2022-09-09T12:35:55;25.70;84.40
1301;DHT22;59099;48.806;9.160;2022-09-09T12:38:42;25.80;82.90
1301;DHT22;59099;48.806;9.160;2022-09-09T12:41:21;25.50;81.50
1301;DHT22;59099;48.806;9.160;2022-09-09T12:43:47;25.10;82.10
1301;DHT22;59099;48.806;9.160;2022-09-09T12:48:57;24.90;84.20
1301;DHT22;59099;48.806;9.160;2022-09-09T12:51:27;25.20;83.40
1301;DHT22;59099;48.806;9.160;2022-09-09T12:53:54;24.90;84.50
1301;DHT22;59099;48.806;9.160;2022-09-09T12:56:27;24.50;84.70
1301;DHT22;59099;48.806;9.160;2022-09-09T12:58:55;24.00;86.60
1301;DHT22;59099;48.806;9.160;2022-09-09T13:01:27;24.30;86.90
1301;DHT22;59099;48.806;9.160;2022-09-09T13:03:54;24.20;87.20
1301;DHT22;59099;48.806;9.160;2022-09-09T13:06:25;24.20;88.20
1301;DHT22;59099;48.806;9.160;2022-09-09T13:08:52;24.50;86.90
1301;DHT22;59099;48.806;9.160;2022-09-09T13:13:57;25.20;85.20
1301;DHT22;59099;48.806;9.160;2022-09-09T13:16:27;25.40;83.70
1301;DHT22;59099;48.806;9.160;2022-09-09T13:18:59;25.40;84.00
1301;DHT22;59099;48.806;9.160;2022-09-09T13:21:39;25.70;84.60
1301;DHT22;59099;48.806;9.160;2022-09-09T13:24:27;26.10;82.50
1301;DHT22;59099;48.806;9.160;2022-09-09T13:27:00;25.70;81.80
1301;DHT22;59099;48.806;9.160;2022-09-09T13:29:30;25.40;83.40
1301;DHT22;59099;48.806;9.160;2022-09-09T13:32:12;25.10;84.30
1301;DHT22;59099;48.806;9.160;2022-09-09T13:34:51;25.30;83.70
1301;DHT22;59099;48.806;9.160;2022-09-09T13:37:30;25.80;83.20
1301;DHT22;59099;48.806;9.160;2022-09-09T13:39:58;25.70;82.90
1301;DHT22;59099;48.806;9.160;2022-09-09T13:42:29;25.80;82.70
1301;DHT22;59099;48.806;9.160;2022-09-09T13:44:59;25.90;83.00
1301;DHT22;59099;48.806;9.160;2022-09-09T13:47:32;25.50;82.70
1301;DHT22;59099;48.806;9.160;2022-09-09T13:52:45;24.00;84.70
1301;DHT22;59099;48.806;9.160;2022-09-09T13:55:11;23.60;83.90
1301;DHT22;59099;48.806;9.160;2022-09-09T13:57:37;23.30;85.10
1301;DHT22;59099;48.806;9.160;2022-09-09T14:00:03;23.40;86.20
1301;DHT22;59099;48.806;9.160;2022-09-09T14:02:29;24.10;84.20
1301;DHT22;59099;48.806;9.160;2022-09-09T14:04:56;24.60;81.50
1301;DHT22;59099;48.806;9.160;2022-09-09T14:07:22;24.40;80.70
1301;DHT22;59099;48.806;9.160;2022-09-09T14:09:48;24.20;80.90
1301;DHT22;59099;48.806;9.160;2022-09-09T14:12:16;23.80;79.80
1301;DHT22;59099;48.806;9.160;2022-09-09T14:14:42;23.90;80.70
1301;DHT22;59099;48.806;9.160;2022-09-09T14:17:09;25.30;79.30
1301;DHT22;59099;48.806;9.160;2022-09-09T14:19:35;25.60;74.90
1301;DHT22;59099;48.806;9.160;2022-09-09T14:22:02;25.70;73.90
1301;DHT22;59099;48.806;9.160;2022-09-09T14:24:28;26.00;74.00
1301;DHT22;59099;48.806;9.160;2022-09-09T14:26:54;26.30;71.30
1301;DHT22;59099;48.806;9.160;2022-09-09T14:29:20;26.40;70.80
1301;DHT22;59099;48.806;9.160;2022-09-09T14:31:46;26.30;72.80
1301;DHT22;59099;48.806;9.160;2022-09-09T14:34:13;26.50;69.40
1301;DHT22;59099;48.806;9.160;2022-09-09T14:36:40;25.90;70.00
1301;DHT22;59099;48.806;9.160;2022-09-09T14:39:07;25.60;70.00
1301;DHT22;59099;48.806;9.160;2022-09-09T14:41:33;25.40;70.00
1301;DHT22;59099;48.806;9.160;2022-09-09T14:43:59;24.70;71.50
1301;DHT22;59099;48.806;9.160;2022-09-09T14:46:25;24.20;73.40
1301;DHT22;59099;48.806;9.160;2022-09-09T14:48:52;24.10;73.80
1301;DHT22;59099;48.806;9.160;2022-09-09T14:51:23;23.90;74.70
1301;DHT22;59099;48.806;9.160;2022-09-09T14:53:53;25.20;73.20
1301;DHT22;59099;48.806;9.160;2022-09-09T14:56:23;26.40;70.20
1301;DHT22;59099;48.806;9.160;2022-09-09T14:58:49;26.20;68.40
1301;DHT22;59099;48.806;9.160;2022-09-09T15:01:19;25.90;69.50
1301;DHT22;59099;48.806;9.160;2022-09-09T15:03:53;25.40;69.70
1301;DHT22;59099;48.806;9.160;2022-09-09T15:06:20;25.00;71.10
1301;DHT22;59099;48.806;9.160;2022-09-09T15:08:46;24.70;71.60
1301;DHT22;59099;48.806;9.160;2022-09-09T15:11:13;24.30;72.70
1301;DHT22;59099;48.806;9.160;2022-09-09T15:13:41;23.90;73.30
1301;DHT22;59099;48.806;9.160;2022-09-09T15:16:14;23.70;74.40
1301;DHT22;59099;48.806;9.160;2022-09-09T15:18:41;23.60;75.50
1301;DHT22;59099;48.806;9.160;2022-09-09T15:21:15;23.30;75.30
1301;DHT22;59099;48.806;9.160;2022-09-09T15:23:42;22.90;76.70
1301;DHT22;59099;48.806;9.160;2022-09-09T15:26:09;22.90;77.40
1301;DHT22;59099;48.806;9.160;2022-09-09T15:28:37;23.00;77.70
1301;DHT22;59099;48.806;9.160;2022-09-09T15:31:11;22.90;78.10
1301;DHT22;59099;48.806;9.160;2022-09-09T15:33:40;22.80;78.50
1301;DHT22;59099;48.806;9.160;2022-09-09T15:36:33;22.90;78.40
1301;DHT22;59099;48.806;9.160;2022-09-09T15:39:00;23.20;78.90
1301;DHT22;59099;48.806;9.160;2022-09-09T15:41:27;23.30;77.70
1301;DHT22;59099;48.806;9.160;2022-09-09T15:43:55;23.40;77.80
1301;DHT22;59099;48.806;9.160;2022-09-09T15:46:40;23.20;78.40
1301;DHT22;59099;48.806;9.160;2022-09-09T15:49:12;23.10;78.90
1301;DHT22;59099;48.806;9.160;2022-09-09T15:51:46;22.80;79.00
1301;DHT22;59099;48.806;9.160;2022-09-09T15:54:15;22.70;79.40
1301;DHT22;59099;48.806;9.160;2022-09-09T15:56:46;22.40;80.30
1301;DHT22;59099;48.806;9.160;2022-09-09T15:59:13;22.40;81.10
1301;DHT22;59099;48.806;9.160;2022-09-09T16:01:40;22.30;81.30
1301;DHT22;59099;48.806;9.160;2022-09-09T16:04:08;22.20;81.70
1301;DHT22;59099;48.806;9.160;2022-09-09T16:06:34;22.20;82.30
1301;DHT22;59099;48.806;9.160;2022-09-09T16:09:01;22.10;82.50
1301;DHT22;59099;48.806;9.160;2022-09-09T16:11:30;22.10;82.90
1301;DHT22;59099;48.806;9.160;2022-09-09T16:13:56;21.90;83.70
1301;DHT22;59099;48.806;9.160;2022-09-09T16:16:25;21.90;83.60
1301;DHT22;59099;48.806;9.160;2022-09-09T16:18:57;21.80;83.10
1301;DHT22;59099;48.806;9.160;2022-09-09T16:21:27;21.70;83.80
1301;DHT22;59099;48.806;9.160;2022-09-09T16:23:58;21.70;84.10
1301;DHT22;59099;48.806;9.160;2022-09-09T16:26:29;21.60;84.70
1301;DHT22;59099;48.806;9.160;2022-09-09T16:28:55;21.50;85.20
1301;DHT22;59099;48.806;9.160;2022-09-09T16:31:25;21.50;85.40
1301;DHT22;59099;48.806;9.160;2022-09-09T16:33:52;21.30;86.70
1301;DHT22;59099;48.806;9.160;2022-09-09T16:36:30;21.10;87.70
1301;DHT22;59099;48.806;9.160;2022-09-09T16:38:58;20.80;88.50
1301;DHT22;59099;48.806;9.160;2022-09-09T16:41:25;20.60;89.70
1301;DHT22;59099;48.806;9.160;2022-09-09T16:43:58;20.40;90.40
1301;DHT22;59099;48.806;9.160;2022-09-09T16:46:25;20.10;90.90
1301;DHT22;59099;48.806;9.160;2022-09-09T16:48:53;19.90;91.10
1301;DHT22;59099;48.806;9.160;2022-09-09T16:51:26;19.80;91.20
1301;DHT22;59099;48.806;9.160;2022-09-09T16:53:53;20.00;91.40
1301;DHT22;59099;48.806;9.160;2022-09-09T16:56:22;19.80;92.10
1301;DHT22;59099;48.806;9.160;2022-09-09T16:58:58;19.50;91.70
1301;DHT22;59099;48.806;9.160;2022-09-09T17:01:33;18.80;97.40
1301;DHT22;59099;48.806;9.160;2022-09-09T17:04:03;18.20;97.60
1301;DHT22;59099;48.806;9.160;2022-09-09T17:06:30;17.80;98.90
1301;DHT22;59099;48.806;9.160;2022-09-09T17:08:57;17.90;98.20
1301;DHT22;59099;48.806;9.160;2022-09-09T17:11:23;17.80;98.80
1301;DHT22;59099;48.806;9.160;2022-09-09T17:13:51;17.90;99.00
1301;DHT22;59099;48.806;9.160;2022-09-09T17:16:19;17.90;99.10
1301;DHT22;59099;48.806;9.160;2022-09-09T17:18:48;18.00;99.50
1301;DHT22;59099;48.806;9.160;2022-09-09T17:21:16;18.20;99.70
1301;DHT22;59099;48.806;9.160;2022-09-09T17:23:44;18.20;99.50
1301;DHT22;59099;48.806;9.160;2022-09-09T17:26:16;18.20;99.70
1301;DHT22;59099;48.806;9.160;2022-09-09T17:28:43;18.30;99.80
1301;DHT22;59099;48.806;9.160;2022-09-09T17:31:12;18.20;99.90
1301;DHT22;59099;48.806;9.160;2022-09-09T17:33:41;18.20;99.90
1301;DHT22;59099;48.806;9.160;2022-09-09T17:36:11;18.30;99.90
1301;DHT22;59099;48.806;9.160;2022-09-09T17:38:37;18.30;99.90
1301;DHT22;59099;48.806;9.160;2022-09-09T17:41:08;18.30;99.90
1301;DHT22;59099;48.806;9.160;2022-09-09T17:43:35;18.20;99.90
1301;DHT22;59099;48.806;9.160;2022-09-09T17:48:36;18.20;99.90
1301;DHT22;59099;48.806;9.160;2022-09-09T17:51:04;18.40;99.90
1301;DHT22;59099;48.806;9.160;2022-09-09T17:53:35;18.40;99.90
1301;DHT22;59099;48.806;9.160;2022-09-09T17:56:06;18.20;99.90
1301;DHT22;59099;48.806;9.160;2022-09-09T17:58:32;18.20;99.90
1301;DHT22;59099;48.806;9.160;2022-09-09T18:01:03;18.10;99.90
1301;DHT22;59099;48.806;9.160;2022-09-09T18:03:29;18.10;99.90
1301;DHT22;59099;48.806;9.160;2022-09-09T18:06:00;18.10;99.90
1301;DHT22;59099;48.806;9.160;2022-09-09T18:08:26;18.00;99.90
1301;DHT22;59099;48.806;9.160;2022-09-09T18:10:53;18.00;99.90
1301;DHT22;59099;48.806;9.160;2022-09-09T18:13:21;18.00;99.90